createdAt,value
2023-01-13T00:01:48.840Z,5.75
2023-01-13T00:04:52.892Z,6.05
2023-01-13T00:07:55.950Z,6.07
2023-01-13T00:10:59.697Z,5.85
2023-01-13T00:14:02.701Z,6.57
2023-01-13T00:17:06.124Z,6.40
2023-01-13T00:20:11.209Z,5.60
2023-01-13T00:23:14.455Z,6.00
2023-01-13T00:26:22.967Z,5.65
2023-01-13T00:29:26.356Z,6.15
2023-01-13T00:32:29.581Z,7.25
2023-01-13T00:35:32.984Z,6.55
2023-01-13T00:38:36.735Z,7.35
2023-01-13T00:41:58.725Z,7.32
2023-01-13T00:45:01.890Z,5.90
2023-01-13T00:48:05.220Z,6.20
2023-01-13T00:51:10.220Z,5.68
2023-01-13T00:54:13.626Z,5.97
2023-01-13T00:57:16.821Z,6.53
2023-01-13T01:00:20.422Z,6.72
2023-01-13T01:03:23.382Z,5.90
2023-01-13T01:06:27.442Z,6.60
2023-01-13T01:09:33.666Z,6.90
2023-01-13T01:12:36.970Z,6.65
2023-01-13T01:15:41.399Z,6.68
2023-01-13T01:18:46.341Z,7.00
2023-01-13T01:21:49.910Z,7.35
2023-01-13T01:24:53.201Z,6.72
2023-01-13T01:27:57.665Z,7.28
2023-01-13T01:31:03.462Z,7.75
2023-01-13T01:34:06.901Z,7.37
2023-01-13T01:37:10.885Z,8.10
2023-01-13T01:40:14.071Z,7.05
2023-01-13T01:43:39.171Z,7.22
2023-01-13T01:46:43.529Z,7.65
2023-01-13T01:49:47.180Z,8.00
2023-01-13T01:52:57.731Z,8.23
2023-01-13T01:56:01.143Z,7.95
2023-01-13T01:59:04.547Z,8.20
2023-01-13T02:02:08.567Z,7.87
2023-01-13T02:05:12.243Z,9.50
2023-01-13T02:08:15.560Z,9.30
2023-01-13T02:11:54.620Z,8.73
2023-01-13T02:15:09.844Z,7.70
2023-01-13T02:18:34.540Z,9.25
2023-01-13T02:22:02.362Z,8.88
2023-01-13T02:25:27.627Z,8.80
2023-01-13T02:29:08.974Z,9.40
2023-01-13T02:32:25.239Z,8.88
2023-01-13T02:35:37.225Z,8.07
2023-01-13T02:39:22.373Z,8.70
2023-01-13T02:42:51.868Z,7.47
2023-01-13T02:46:03.485Z,7.10
2023-01-13T02:49:11.026Z,8.00
2023-01-13T02:52:23.958Z,7.40
2023-01-13T02:55:47.056Z,6.78
2023-01-13T02:58:51.081Z,7.03
2023-01-13T03:01:56.356Z,6.87
2023-01-13T03:05:00.865Z,6.40
2023-01-13T03:08:11.826Z,6.53
2023-01-13T03:11:17.633Z,7.10
2023-01-13T03:14:36.621Z,6.90
2023-01-13T03:17:42.858Z,7.22
2023-01-13T03:21:04.879Z,7.32
2023-01-13T03:24:14.367Z,5.80
2023-01-13T03:27:27.743Z,6.00
2023-01-13T03:30:36.349Z,6.70
2023-01-13T03:33:52.881Z,7.30
2023-01-13T03:36:57.788Z,6.68
2023-01-13T03:40:07.672Z,5.70
2023-01-13T03:43:34.365Z,6.35
2023-01-13T03:46:44.363Z,5.95
2023-01-13T03:50:00.147Z,6.47
2023-01-13T03:53:07.828Z,6.82
2023-01-13T03:56:16.464Z,7.43
2023-01-13T03:59:23.916Z,6.45
2023-01-13T04:02:47.489Z,6.50
2023-01-13T04:05:57.731Z,5.80
2023-01-13T04:09:15.162Z,6.75
2023-01-13T04:13:03.077Z,5.50
2023-01-13T04:16:07.788Z,5.40
2023-01-13T04:19:11.079Z,5.90
2023-01-13T04:22:15.363Z,5.80
2023-01-13T04:25:18.708Z,5.30
2023-01-13T04:28:22.801Z,4.93
2023-01-13T04:34:30.367Z,5.35
2023-01-13T04:37:33.815Z,5.07
2023-01-13T04:40:36.854Z,5.45
2023-01-13T04:43:40.150Z,5.72
2023-01-13T04:46:43.113Z,5.18
2023-01-13T04:49:46.320Z,5.25
2023-01-13T04:52:53.479Z,5.10
2023-01-13T04:55:56.641Z,6.30
2023-01-13T04:58:59.520Z,5.37
2023-01-13T05:02:02.903Z,5.70
2023-01-13T05:05:07.123Z,6.07
2023-01-13T05:08:10.930Z,6.70
2023-01-13T05:11:33.409Z,6.22
2023-01-13T05:14:55.309Z,6.15
2023-01-13T05:17:58.572Z,6.68
2023-01-13T05:21:02.416Z,5.55
2023-01-13T05:24:24.113Z,6.00
2023-01-13T05:27:27.786Z,6.30
2023-01-13T05:30:33.411Z,6.95
2023-01-13T05:33:37.095Z,7.18
2023-01-13T05:36:40.089Z,7.03
2023-01-13T05:40:02.323Z,6.32
2023-01-13T05:43:20.194Z,6.20
2023-01-13T05:46:24.668Z,7.32
2023-01-13T05:49:27.663Z,5.50
2023-01-13T05:52:31.023Z,6.22
2023-01-13T05:55:35.355Z,5.22
2023-01-13T05:58:40.245Z,5.80
2023-01-13T06:01:43.416Z,6.17
2023-01-13T06:04:48.109Z,6.85
2023-01-13T06:07:51.041Z,6.40
2023-01-13T06:10:54.577Z,6.07
2023-01-13T06:14:02.471Z,6.50
2023-01-13T06:17:10.964Z,5.97
2023-01-13T06:20:15.362Z,5.47
2023-01-13T06:23:19.151Z,6.47
2023-01-13T06:26:24.185Z,6.15
2023-01-13T06:29:27.768Z,6.68
2023-01-13T06:32:34.441Z,7.47
2023-01-13T06:35:39.763Z,9.45
2023-01-13T06:38:44.801Z,16.55
2023-01-13T06:45:10.687Z,10.05
2023-01-13T06:48:14.503Z,9.30
2023-01-13T06:51:17.464Z,9.38
2023-01-13T06:54:20.676Z,8.82
2023-01-13T06:57:24.226Z,8.48
2023-01-13T07:00:28.811Z,7.78
2023-01-13T07:03:31.870Z,7.80
2023-01-13T07:06:35.411Z,8.20
2023-01-13T07:09:38.506Z,7.10
2023-01-13T07:13:00.774Z,6.70
2023-01-13T07:16:06.077Z,8.25
2023-01-13T07:19:09.522Z,7.97
2023-01-13T07:22:14.010Z,9.30
2023-01-13T07:25:17.193Z,9.07
2023-01-13T07:28:20.260Z,7.62
2023-01-13T07:31:26.138Z,9.80
2023-01-13T07:34:30.599Z,9.63
2023-01-13T07:37:35.714Z,10.75
2023-01-13T07:40:41.382Z,9.48
2023-01-13T07:43:44.691Z,9.27
2023-01-13T07:46:48.686Z,8.27
2023-01-13T07:49:52.170Z,7.60
2023-01-13T07:52:58.594Z,8.80
2023-01-13T07:56:03.478Z,7.97
2023-01-13T07:59:06.355Z,7.40
2023-01-13T08:02:13.269Z,8.60
2023-01-13T08:05:16.724Z,9.63
2023-01-13T08:08:20.150Z,11.00
2023-01-13T08:11:23.750Z,10.52
2023-01-13T08:14:26.508Z,11.35
2023-01-13T08:17:29.723Z,10.68
2023-01-13T08:20:32.931Z,10.32
2023-01-13T08:23:36.795Z,9.40
2023-01-13T08:26:39.705Z,10.52
2023-01-13T08:29:42.894Z,10.68
2023-01-13T08:32:47.637Z,10.93
2023-01-13T08:35:53.415Z,9.73
2023-01-13T08:38:57.638Z,10.55
2023-01-13T08:42:00.994Z,9.50
2023-01-13T08:45:06.234Z,8.95
2023-01-13T08:48:10.354Z,9.70
2023-01-13T08:51:13.475Z,13.05
2023-01-13T08:54:17.265Z,12.75
2023-01-13T08:57:20.563Z,15.25
2023-01-13T09:00:23.946Z,16.37
2023-01-13T09:03:27.067Z,16.58
2023-01-13T09:06:30.415Z,15.32
2023-01-13T09:09:34.148Z,15.30
2023-01-13T09:12:56.001Z,12.60
2023-01-13T09:16:00.475Z,12.48
2023-01-13T09:19:03.991Z,5.57
2023-01-13T09:22:07.121Z,6.20
2023-01-13T09:25:12.687Z,4.80
2023-01-13T09:31:18.747Z,4.75
2023-01-13T09:34:40.428Z,4.65
2023-01-13T09:37:44.813Z,4.60
2023-01-13T09:40:49.924Z,5.03
2023-01-13T09:43:57.949Z,4.85
2023-01-13T09:47:04.857Z,5.18
2023-01-13T09:50:14.202Z,5.25
2023-01-13T09:53:25.529Z,5.00
2023-01-13T09:56:29.006Z,4.95
2023-01-13T09:59:36.514Z,5.05
2023-01-13T10:02:52.131Z,4.87
2023-01-13T10:06:10.812Z,4.90
2023-01-13T10:09:27.675Z,5.12
2023-01-13T10:12:49.824Z,5.43
2023-01-13T10:15:57.090Z,5.22
2023-01-13T10:19:03.374Z,5.10
2023-01-13T10:22:28.004Z,5.70
2023-01-13T10:25:36.860Z,6.00
2023-01-13T10:28:39.752Z,6.30
2023-01-13T10:31:42.915Z,6.07
2023-01-13T10:34:51.322Z,6.47
2023-01-13T10:37:56.995Z,6.30
2023-01-13T10:41:02.095Z,6.95
2023-01-13T10:44:16.396Z,6.43
2023-01-13T10:47:28.140Z,7.85
2023-01-13T10:50:35.265Z,6.57
2023-01-13T10:54:00.616Z,6.97
2023-01-13T10:57:19.314Z,6.87
2023-01-13T11:00:33.903Z,7.18
2023-01-13T11:03:41.596Z,6.67
2023-01-13T11:06:47.345Z,6.50
2023-01-13T11:10:03.908Z,6.97
2023-01-13T11:13:24.122Z,6.80
2023-01-13T11:16:28.369Z,6.78
2023-01-13T11:19:32.608Z,6.72
2023-01-13T11:22:41.575Z,6.33
2023-01-13T11:25:47.675Z,6.20
2023-01-13T11:28:58.133Z,6.28
2023-01-13T11:32:09.750Z,6.70
2023-01-13T11:35:18.993Z,6.20
2023-01-13T11:38:44.531Z,5.82
